Time;durP1;ratioP1;P1;durP2;ratioP2;P2;SDS_P1;SDS_P2;PMS_P1;PMS_P2;Temp;Humidity;BMP_temperature;BMP_pressure;BME280_temperature;BME280_humidity;BME280_pressure;Samples;Min_cycle;Max_cycle;Signal;HPM_P1;HPM_P2
2021/03/25 00:01:14;;;;;;;8.17;5.70;;;19.90;47.90;;;;;;5054395;28;20490;-69
2021/03/25 00:03:41;;;;;;;8.07;5.43;;;19.90;47.90;;;;;;5053736;28;20846;-68
2021/03/25 00:06:08;;;;;;;9.60;5.47;;;19.90;47.90;;;;;;5055361;28;20505;-69
2021/03/25 00:08:34;;;;;;;8.33;5.40;;;19.90;47.90;;;;;;5076214;28;20468;-68
2021/03/25 00:11:00;;;;;;;8.03;5.50;;;19.90;48.00;;;;;;5055186;28;20474;-68
2021/03/25 00:13:27;;;;;;;10.67;6.10;;;19.90;47.90;;;;;;5056636;28;22380;-67
2021/03/25 00:15:53;;;;;;;10.47;6.37;;;19.90;47.90;;;;;;5050194;28;20482;-68
2021/03/25 00:18:19;;;;;;;6.60;5.47;;;19.90;47.80;;;;;;5072487;28;20468;-67
2021/03/25 00:20:46;;;;;;;8.03;5.60;;;20.00;47.80;;;;;;5051919;28;20485;-68
2021/03/25 00:23:13;;;;;;;8.30;6.10;;;19.90;47.60;;;;;;5043708;28;20501;-68
2021/03/25 00:25:39;;;;;;;8.50;6.23;;;20.00;47.70;;;;;;5050952;28;20485;-68
2021/03/25 00:28:06;;;;;;;12.10;6.10;;;19.90;47.50;;;;;;5053545;28;20504;-68
2021/03/25 00:30:32;;;;;;;10.33;5.70;;;19.90;47.50;;;;;;5033891;28;20497;-68
2021/03/25 00:32:59;;;;;;;6.90;5.80;;;19.90;47.50;;;;;;5054370;28;20482;-67
2021/03/25 00:35:26;;;;;;;10.73;5.70;;;19.90;47.50;;;;;;5050640;28;20494;-68
2021/03/25 00:37:53;;;;;;;10.40;5.30;;;19.90;47.50;;;;;;5053100;28;21606;-68
2021/03/25 00:40:19;;;;;;;10.93;6.00;;;19.90;47.60;;;;;;5053257;28;20799;-68
2021/03/25 00:42:46;;;;;;;5.70;5.20;;;19.90;47.50;;;;;;5055499;28;20493;-68
2021/03/25 00:45:13;;;;;;;7.63;6.33;;;19.90;47.40;;;;;;5047576;28;22070;-68
2021/03/25 00:47:40;;;;;;;6.47;5.87;;;20.00;47.20;;;;;;5075470;28;20543;-68
2021/03/25 00:50:07;;;;;;;8.30;5.97;;;20.00;47.10;;;;;;5056089;28;21071;-67
2021/03/25 00:52:33;;;;;;;6.17;4.90;;;20.00;47.10;;;;;;5051953;28;20469;-68
2021/03/25 00:55:00;;;;;;;7.60;5.40;;;19.90;47.00;;;;;;5052410;28;21466;-68
2021/03/25 00:57:27;;;;;;;8.83;5.70;;;19.90;47.00;;;;;;5063116;28;20492;-68
2021/03/25 00:59:53;;;;;;;8.53;6.60;;;19.90;47.10;;;;;;5075232;28;20496;-69
2021/03/25 01:02:20;;;;;;;11.53;6.33;;;19.90;47.10;;;;;;5062361;28;20482;-68
2021/03/25 01:04:46;;;;;;;10.20;6.30;;;19.90;47.00;;;;;;5050710;28;20483;-68
2021/03/25 01:07:12;;;;;;;11.63;7.53;;;19.90;46.90;;;;;;5051116;28;20505;-68
2021/03/25 01:09:38;;;;;;;6.67;5.73;;;20.00;47.10;;;;;;5053913;28;20482;-68
2021/03/25 01:12:06;;;;;;;8.70;6.97;;;20.00;46.90;;;;;;5056086;28;20852;-68
2021/03/25 01:14:33;;;;;;;7.40;5.97;;;19.90;46.70;;;;;;5042561;28;20491;-67
2021/03/25 01:17:02;;;;;;;9.80;6.83;;;19.90;46.50;;;;;;5054868;28;20486;-68
2021/03/25 01:19:29;;;;;;;8.30;6.70;;;19.90;46.60;;;;;;5053244;28;21079;-68
2021/03/25 01:21:56;;;;;;;14.00;7.40;;;19.90;46.60;;;;;;5050711;28;20865;-68
2021/03/25 01:24:22;;;;;;;9.90;7.13;;;19.80;46.50;;;;;;5052148;28;20498;-67
2021/03/25 01:26:48;;;;;;;13.47;7.50;;;19.80;46.50;;;;;;5054034;28;20500;-67
2021/03/25 01:29:15;;;;;;;11.03;6.23;;;19.80;46.50;;;;;;5053406;28;20493;-68
2021/03/25 01:31:42;;;;;;;10.13;7.30;;;19.80;46.50;;;;;;5051703;28;20847;-68
2021/03/25 01:34:09;;;;;;;9.53;7.30;;;19.80;46.50;;;;;;5051865;28;20481;-68
2021/03/25 01:36:35;;;;;;;7.63;6.93;;;19.80;46.40;;;;;;5054256;28;20473;-68
2021/03/25 01:39:01;;;;;;;9.73;7.43;;;19.80;46.60;;;;;;5053817;28;20481;-68
2021/03/25 01:41:27;;;;;;;9.80;7.27;;;19.80;46.90;;;;;;5054162;28;20469;-68
2021/03/25 01:43:54;;;;;;;9.40;7.17;;;19.80;47.20;;;;;;5052052;28;20490;-68
2021/03/25 01:46:23;;;;;;;10.77;7.00;;;19.80;47.30;;;;;;5051916;28;20494;-68
2021/03/25 01:48:51;;;;;;;9.63;7.70;;;19.80;47.20;;;;;;5043320;28;20494;-68
2021/03/25 01:51:26;;;;;;;13.33;7.40;;;19.80;47.10;;;;;;5047250;28;20488;-67
2021/03/25 01:54:27;;;;;;;12.50;6.70;;;19.80;47.10;;;;;;5049388;28;21005;-68
2021/03/25 01:57:17;;;;;;;11.70;7.43;;;19.80;47.10;;;;;;5052924;28;20482;-68
2021/03/25 01:59:55;;;;;;;10.50;7.70;;;19.80;46.90;;;;;;5052810;28;20477;-68
2021/03/25 02:02:25;;;;;;;12.07;7.57;;;19.80;46.80;;;;;;5056074;28;20479;-68
2021/03/25 02:04:57;;;;;;;12.87;7.50;;;19.80;46.80;;;;;;5062196;28;21023;-68
2021/03/25 02:07:32;;;;;;;9.60;7.10;;;19.80;46.50;;;;;;5053018;28;20907;-66
2021/03/25 02:10:01;;;;;;;9.10;7.17;;;19.80;46.50;;;;;;5052139;28;20841;-68
2021/03/25 02:12:31;;;;;;;11.50;7.80;;;19.80;46.60;;;;;;5054741;28;20514;-68
2021/03/25 02:15:04;;;;;;;12.37;7.50;;;19.80;46.50;;;;;;5051729;28;20989;-67
2021/03/25 02:17:32;;;;;;;9.60;6.93;;;19.80;46.40;;;;;;5048400;28;20496;-68
2021/03/25 02:20:25;;;;;;;9.73;6.60;;;19.80;46.40;;;;;;5059600;28;20564;-68
2021/03/25 02:23:18;;;;;;;11.40;7.20;;;19.80;46.50;;;;;;5049857;28;20920;-68
2021/03/25 02:25:46;;;;;;;14.07;6.80;;;19.80;46.40;;;;;;5056316;28;20481;-69
2021/03/25 02:28:18;;;;;;;9.20;6.90;;;19.80;46.40;;;;;;5080263;28;20485;-68
2021/03/25 02:30:59;;;;;;;7.77;6.60;;;19.80;46.50;;;;;;5062035;28;20569;-68
2021/03/25 02:33:25;;;;;;;8.33;7.17;;;19.80;46.40;;;;;;5057205;28;20534;-68
2021/03/25 02:35:53;;;;;;;12.97;7.87;;;19.80;46.40;;;;;;5050888;28;20491;-68
2021/03/25 02:38:22;;;;;;;10.47;6.53;;;19.80;46.40;;;;;;5055407;28;20542;-67
2021/03/25 02:40:50;;;;;;;7.40;6.70;;;19.80;46.40;;;;;;5054774;28;20493;-68
2021/03/25 02:43:17;;;;;;;7.97;6.03;;;19.80;46.50;;;;;;5067629;28;20869;-68
2021/03/25 02:45:45;;;;;;;11.00;6.40;;;19.80;46.40;;;;;;5058078;28;20481;-67
2021/03/25 02:48:13;;;;;;;9.37;6.43;;;19.80;46.70;;;;;;5038013;28;20927;-68
2021/03/25 02:50:42;;;;;;;13.40;7.27;;;19.80;46.70;;;;;;5050782;28;20486;-68
2021/03/25 02:53:11;;;;;;;7.20;6.47;;;19.80;46.40;;;;;;5057140;28;20489;-68
2021/03/25 02:55:37;;;;;;;7.43;6.07;;;19.80;46.40;;;;;;5055013;28;20544;-67
2021/03/25 02:58:05;;;;;;;6.43;5.33;;;19.80;46.40;;;;;;5058236;28;20500;-67
2021/03/25 03:00:33;;;;;;;10.87;5.70;;;19.80;46.60;;;;;;5076045;28;20481;-67
2021/03/25 03:03:02;;;;;;;8.40;7.13;;;19.80;46.90;;;;;;5058348;28;20493;-68
2021/03/25 03:05:29;;;;;;;6.70;5.60;;;19.80;46.40;;;;;;5056121;28;20883;-68
2021/03/25 03:07:57;;;;;;;8.43;6.50;;;19.80;46.40;;;;;;5056947;28;20493;-68
2021/03/25 03:10:25;;;;;;;11.13;7.10;;;19.80;46.80;;;;;;5069740;28;20472;-68
2021/03/25 03:12:52;;;;;;;8.20;6.33;;;19.80;46.40;;;;;;5049268;28;20481;-69
2021/03/25 03:15:22;;;;;;;6.00;5.40;;;19.80;46.40;;;;;;5077509;28;20508;-68
2021/03/25 03:17:48;;;;;;;8.07;6.57;;;19.80;46.40;;;;;;5055806;28;20827;-69
2021/03/25 03:20:17;;;;;;;7.53;6.33;;;19.80;46.40;;;;;;5053186;28;20489;-69
2021/03/25 03:22:44;;;;;;;8.13;5.70;;;19.90;46.50;;;;;;5053219;28;20481;-68
2021/03/25 03:25:11;;;;;;;9.57;6.10;;;19.90;46.50;;;;;;5052350;28;20618;-68
2021/03/25 03:27:41;;;;;;;10.53;7.03;;;19.90;46.50;;;;;;5058406;28;20501;-67
2021/03/25 03:30:08;;;;;;;9.50;7.00;;;19.90;46.40;;;;;;5039405;28;20477;-66
2021/03/25 03:32:37;;;;;;;10.47;6.30;;;19.90;46.50;;;;;;5047343;28;21220;-68
2021/03/25 03:35:07;;;;;;;12.90;7.30;;;19.90;46.60;;;;;;5053536;28;21557;-68
2021/03/25 03:37:36;;;;;;;7.90;6.47;;;19.90;46.70;;;;;;5055318;28;20481;-67
2021/03/25 03:40:07;;;;;;;8.20;7.37;;;19.80;46.40;;;;;;5056883;28;20477;-67
2021/03/25 03:42:33;;;;;;;9.20;7.37;;;19.80;46.50;;;;;;5057647;28;20547;-67
2021/03/25 03:44:59;;;;;;;11.57;7.87;;;19.80;46.50;;;;;;5053173;28;21206;-68
2021/03/25 03:47:28;;;;;;;9.30;6.77;;;19.80;46.50;;;;;;5056964;28;21016;-68
2021/03/25 03:49:56;;;;;;;16.20;7.70;;;19.80;46.40;;;;;;5051745;28;21032;-68
2021/03/25 03:52:23;;;;;;;9.23;7.50;;;19.80;46.50;;;;;;5054555;28;20484;-68
2021/03/25 03:54:50;;;;;;;10.33;7.43;;;19.80;46.40;;;;;;5053138;28;20482;-68
2021/03/25 03:57:21;;;;;;;13.63;7.50;;;19.80;46.40;;;;;;5068451;28;20610;-68
2021/03/25 03:59:50;;;;;;;12.30;8.00;;;19.80;46.40;;;;;;5053394;28;20485;-68
2021/03/25 04:02:22;;;;;;;13.10;7.37;;;19.80;46.40;;;;;;5054732;28;20483;-67
2021/03/25 04:04:50;;;;;;;14.67;8.50;;;19.70;46.40;;;;;;5070613;28;21144;-67
2021/03/25 04:07:19;;;;;;;12.50;8.23;;;19.70;46.40;;;;;;5057258;28;20513;-68
2021/03/25 04:09:48;;;;;;;12.53;8.00;;;19.70;46.60;;;;;;5051487;28;20484;-68
2021/03/25 04:12:15;;;;;;;13.23;8.00;;;19.70;46.40;;;;;;5072502;28;20988;-68
2021/03/25 04:14:46;;;;;;;8.50;7.57;;;19.70;46.40;;;;;;5051914;28;21458;-68
2021/03/25 04:17:13;;;;;;;16.10;7.77;;;19.60;46.30;;;;;;5053273;28;20477;-68
2021/03/25 04:19:40;;;;;;;15.07;8.83;;;19.60;46.30;;;;;;5054369;28;21342;-68
2021/03/25 04:22:10;;;;;;;16.17;8.20;;;19.60;46.30;;;;;;5056169;28;20535;-68
2021/03/25 04:24:41;;;;;;;10.53;7.17;;;19.70;46.40;;;;;;5046653;28;20483;-68
2021/03/25 04:27:08;;;;;;;14.30;8.40;;;19.60;46.30;;;;;;5041840;28;20855;-68
2021/03/25 04:29:36;;;;;;;11.67;8.33;;;19.60;46.30;;;;;;5044273;28;20481;-68
2021/03/25 04:32:04;;;;;;;11.93;9.00;;;19.70;46.40;;;;;;5049609;28;20541;-68
2021/03/25 04:34:30;;;;;;;11.37;8.10;;;19.60;46.30;;;;;;5056611;28;20481;-68
2021/03/25 04:36:56;;;;;;;11.80;8.60;;;19.70;46.40;;;;;;5060579;28;20485;-67
2021/03/25 04:39:22;;;;;;;14.93;8.10;;;19.70;46.40;;;;;;5061700;28;20477;-68
2021/03/25 04:41:48;;;;;;;14.33;8.40;;;19.70;46.40;;;;;;5062601;28;20473;-68
2021/03/25 04:44:24;;;;;;;13.07;8.27;;;19.80;46.30;;;;;;5054550;28;20858;-68
2021/03/25 04:46:53;;;;;;;11.47;7.87;;;19.80;46.20;;;;;;5057186;28;20481;-69
2021/03/25 04:49:26;;;;;;;10.57;7.80;;;19.80;46.20;;;;;;5054419;28;20490;-68
2021/03/25 04:51:58;;;;;;;15.10;8.50;;;19.80;46.10;;;;;;5052569;28;20482;-68
2021/03/25 04:54:28;;;;;;;18.67;8.43;;;19.70;46.20;;;;;;5052158;28;20516;-68
2021/03/25 04:56:54;;;;;;;12.13;8.07;;;19.70;46.10;;;;;;5052387;28;20485;-68
2021/03/25 04:59:20;;;;;;;12.30;8.13;;;19.70;46.20;;;;;;5072571;28;20488;-67
2021/03/25 05:01:46;;;;;;;12.33;9.20;;;19.70;46.20;;;;;;5051288;28;20491;-68
2021/03/25 05:04:13;;;;;;;11.97;8.23;;;19.70;46.20;;;;;;5052112;28;20492;-67
2021/03/25 05:06:45;;;;;;;11.17;8.50;;;19.70;46.30;;;;;;5054671;28;21200;-68
2021/03/25 05:09:12;;;;;;;8.90;7.13;;;19.70;46.40;;;;;;5054013;28;21322;-68
2021/03/25 05:11:38;;;;;;;8.53;7.67;;;19.60;46.30;;;;;;5050536;28;20902;-67
2021/03/25 05:14:06;;;;;;;11.07;8.10;;;19.60;46.30;;;;;;5043544;28;20506;-67
2021/03/25 05:16:34;;;;;;;10.97;6.97;;;19.60;46.30;;;;;;5049721;28;20843;-68
2021/03/25 05:19:07;;;;;;;9.37;7.53;;;19.60;46.30;;;;;;5053736;28;20489;-67
2021/03/25 05:21:37;;;;;;;9.63;7.13;;;19.60;46.30;;;;;;5067885;28;20990;-67
2021/03/25 05:24:09;;;;;;;13.77;7.10;;;19.60;46.30;;;;;;5053697;28;20473;-67
2021/03/25 05:26:38;;;;;;;10.93;7.60;;;19.70;46.40;;;;;;5045002;28;20469;-67
2021/03/25 05:29:05;;;;;;;10.60;7.30;;;19.70;46.40;;;;;;5067031;28;20519;-67
2021/03/25 05:31:31;;;;;;;12.47;7.70;;;19.60;46.30;;;;;;5055407;28;20526;-67
2021/03/25 05:34:01;;;;;;;15.00;7.70;;;19.70;46.40;;;;;;5049588;28;20490;-68
2021/03/25 05:36:27;;;;;;;14.17;7.70;;;19.70;46.30;;;;;;5050452;28;20531;-68
2021/03/25 05:38:54;;;;;;;10.30;8.10;;;19.70;46.00;;;;;;5052133;28;20482;-68
2021/03/25 05:41:27;;;;;;;12.13;7.87;;;19.80;46.10;;;;;;5052162;28;21643;-70
2021/03/25 05:44:03;;;;;;;13.53;8.13;;;19.70;46.10;;;;;;5067376;28;20484;-67
2021/03/25 05:46:33;;;;;;;9.60;8.10;;;19.80;46.10;;;;;;5056828;28;20473;-68
2021/03/25 05:49:27;;;;;;;11.80;8.53;;;19.80;45.90;;;;;;5052641;28;20489;-68
2021/03/25 05:52:18;;;;;;;9.10;7.47;;;19.80;45.80;;;;;;5032721;28;20474;-68
2021/03/25 05:54:53;;;;;;;10.57;7.23;;;19.80;46.00;;;;;;5047796;28;20535;-68
2021/03/25 05:57:25;;;;;;;12.23;8.10;;;19.80;45.90;;;;;;5058640;28;20472;-68
2021/03/25 05:59:55;;;;;;;11.40;8.40;;;19.80;45.90;;;;;;5064488;28;20465;-68
2021/03/25 06:02:24;;;;;;;14.53;8.57;;;19.80;46.00;;;;;;5057525;28;20490;-68
2021/03/25 06:04:50;;;;;;;10.53;7.70;;;19.70;45.90;;;;;;5054997;28;21025;-67
2021/03/25 06:07:39;;;;;;;11.97;7.53;;;19.80;46.00;;;;;;5057284;28;20504;-67
2021/03/25 06:10:10;;;;;;;10.30;8.60;;;19.80;46.00;;;;;;5029652;28;20476;-68
2021/03/25 06:12:47;;;;;;;10.10;7.83;;;19.70;46.20;;;;;;5038746;28;20889;-70
2021/03/25 06:15:21;;;;;;;16.33;8.47;;;19.70;46.30;;;;;;5050238;28;20471;-69
2021/03/25 06:18:00;;;;;;;20.93;10.23;;;19.70;46.20;;;;;;5051219;28;21626;-68
2021/03/25 06:20:34;;;;;;;11.80;8.37;;;19.70;46.20;;;;;;5050104;28;21729;-68
2021/03/25 06:23:25;;;;;;;16.27;7.90;;;19.70;46.20;;;;;;5047966;28;20486;-69
2021/03/25 06:25:54;;;;;;;16.33;8.10;;;19.60;46.30;;;;;;5045561;28;20493;-69
2021/03/25 06:28:30;;;;;;;10.70;8.20;;;19.60;46.10;;;;;;5046880;28;20490;-68
2021/03/25 06:31:14;;;;;;;14.93;8.27;;;19.70;46.30;;;;;;5055419;28;20477;-69
2021/03/25 06:33:44;;;;;;;13.17;8.30;;;19.60;46.20;;;;;;5038496;28;20477;-69
2021/03/25 06:36:12;;;;;;;17.07;8.90;;;19.60;46.30;;;;;;5046820;28;20547;-69
2021/03/25 06:38:39;;;;;;;14.13;8.77;;;19.60;46.20;;;;;;5052516;28;21142;-69
2021/03/25 06:41:07;;;;;;;11.30;7.87;;;19.60;46.20;;;;;;5032756;28;20555;-69
2021/03/25 06:43:37;;;;;;;14.67;7.80;;;19.60;45.90;;;;;;5045449;28;20493;-69
2021/03/25 06:46:05;;;;;;;12.43;8.40;;;19.70;45.80;;;;;;5046759;28;20561;-68
2021/03/25 06:48:36;;;;;;;8.23;6.53;;;19.70;45.70;;;;;;5045771;28;20485;-69
2021/03/25 06:51:09;;;;;;;12.70;7.43;;;19.70;45.70;;;;;;5053009;28;20493;-69
2021/03/25 06:53:35;;;;;;;10.20;7.40;;;19.70;45.70;;;;;;5036587;28;20482;-69
2021/03/25 06:56:02;;;;;;;8.90;7.43;;;19.70;45.70;;;;;;5046792;28;20989;-69
2021/03/25 06:58:30;;;;;;;11.80;7.90;;;19.70;45.80;;;;;;5050250;28;20489;-69
2021/03/25 07:01:00;;;;;;;10.73;6.27;;;19.70;45.90;;;;;;5051979;28;20500;-69
2021/03/25 07:03:26;;;;;;;11.77;7.57;;;19.70;45.90;;;;;;5046585;28;20575;-70
2021/03/25 07:05:52;;;;;;;9.87;7.77;;;19.70;45.90;;;;;;5048064;28;20492;-69
2021/03/25 07:08:21;;;;;;;11.57;7.10;;;19.60;45.90;;;;;;5045297;28;20484;-69
2021/03/25 07:10:49;;;;;;;7.63;6.40;;;19.60;46.10;;;;;;5043599;28;20877;-69
2021/03/25 07:13:17;;;;;;;9.07;6.80;;;19.50;46.00;;;;;;5045919;28;20500;-69
2021/03/25 07:15:43;;;;;;;12.80;7.60;;;19.60;45.90;;;;;;5047629;28;20478;-69
2021/03/25 07:18:28;;;;;;;12.20;7.70;;;19.60;45.80;;;;;;5063853;28;20487;-69
2021/03/25 07:21:23;;;;;;;11.50;7.97;;;19.60;45.70;;;;;;5050201;28;21184;-69
2021/03/25 07:23:49;;;;;;;9.70;7.50;;;19.60;45.70;;;;;;5059936;28;21153;-68
2021/03/25 07:26:20;;;;;;;10.40;6.63;;;19.60;45.90;;;;;;5062028;28;20532;-69
2021/03/25 07:28:57;;;;;;;10.50;8.40;;;19.50;46.00;;;;;;5042896;28;20482;-69
2021/03/25 07:31:28;;;;;;;13.17;7.53;;;19.50;46.00;;;;;;5047060;28;20526;-69
2021/03/25 07:33:55;;;;;;;10.30;7.00;;;19.50;46.00;;;;;;5050341;28;20474;-69
2021/03/25 07:36:21;;;;;;;12.33;7.73;;;19.60;46.00;;;;;;5046512;28;20998;-69
2021/03/25 07:38:47;;;;;;;10.77;7.50;;;19.50;46.00;;;;;;5049270;28;20494;-69
2021/03/25 07:41:19;;;;;;;11.03;7.33;;;19.50;46.00;;;;;;5050362;28;20496;-69
2021/03/25 07:43:52;;;;;;;10.67;7.23;;;19.60;46.00;;;;;;5047143;28;20501;-70
2021/03/25 07:46:19;;;;;;;10.70;7.90;;;19.60;46.00;;;;;;5052575;28;21076;-70
2021/03/25 07:49:05;;;;;;;10.87;8.30;;;19.50;45.90;;;;;;5033725;28;21203;-70
2021/03/25 07:51:45;;;;;;;10.00;8.27;;;19.50;45.80;;;;;;5048755;28;20484;-70
2021/03/25 07:54:13;;;;;;;13.63;9.17;;;19.50;45.80;;;;;;5045263;28;20508;-71
2021/03/25 07:57:02;;;;;;;12.93;9.50;;;19.50;45.90;;;;;;5047357;28;20501;-71
2021/03/25 07:59:52;;;;;;;12.00;9.30;;;19.50;45.90;;;;;;5046203;28;20842;-70
2021/03/25 08:02:27;;;;;;;10.80;7.93;;;19.40;46.00;;;;;;5043919;28;20531;-70
2021/03/25 08:04:54;;;;;;;10.63;7.93;;;19.50;46.00;;;;;;5048466;28;21742;-70
2021/03/25 08:07:20;;;;;;;11.37;8.90;;;19.50;46.20;;;;;;5046800;28;20932;-70
2021/03/25 08:09:48;;;;;;;11.90;7.87;;;19.40;46.20;;;;;;5043433;28;20491;-70
2021/03/25 08:12:29;;;;;;;13.00;9.37;;;19.40;46.10;;;;;;5049089;28;20481;-71
2021/03/25 08:15:21;;;;;;;19.83;9.20;;;19.50;46.20;;;;;;5046288;28;20513;-71
2021/03/25 08:17:54;;;;;;;13.87;8.90;;;19.50;46.20;;;;;;5049942;28;20479;-71
2021/03/25 08:20:23;;;;;;;15.80;11.03;;;19.50;46.20;;;;;;5043825;28;20500;-71
2021/03/25 08:22:56;;;;;;;13.87;9.33;;;19.50;46.20;;;;;;5052908;28;20477;-70
2021/03/25 08:25:41;;;;;;;12.53;9.70;;;19.50;46.20;;;;;;5042183;28;20481;-70
2021/03/25 08:28:25;;;;;;;15.03;9.30;;;19.50;46.20;;;;;;5039329;28;20477;-70
2021/03/25 08:31:32;;;;;;;12.80;9.37;;;19.50;46.20;;;;;;5042668;28;20482;-70
2021/03/25 08:34:26;;;;;;;19.90;9.40;;;19.40;46.10;;;;;;5045038;28;20514;-70
2021/03/25 08:37:17;;;;;;;13.83;9.67;;;19.40;46.10;;;;;;5049417;28;20486;-71
2021/03/25 08:39:47;;;;;;;9.90;8.23;;;19.40;46.10;;;;;;5050194;28;20584;-70
2021/03/25 08:42:18;;;;;;;11.93;8.10;;;19.40;46.10;;;;;;5036619;28;20524;-70
2021/03/25 08:44:47;;;;;;;11.23;9.30;;;19.30;46.00;;;;;;5041726;28;20928;-71
2021/03/25 08:47:15;;;;;;;10.13;8.10;;;19.40;46.10;;;;;;5055012;28;20476;-69
2021/03/25 08:49:45;;;;;;;12.00;8.37;;;19.30;46.00;;;;;;5061269;28;21001;-71
2021/03/25 08:52:14;;;;;;;25.93;9.50;;;19.40;46.00;;;;;;5063075;28;20470;-71
2021/03/25 08:54:42;;;;;;;10.67;7.90;;;19.50;45.70;;;;;;5044715;28;20490;-71
2021/03/25 08:57:14;;;;;;;10.50;7.97;;;19.50;45.60;;;;;;5047951;28;20478;-70
2021/03/25 08:59:41;;;;;;;12.00;8.00;;;19.60;45.60;;;;;;5042033;28;20494;-71
2021/03/25 09:02:13;;;;;;;12.27;7.80;;;19.60;45.50;;;;;;5035939;28;20480;-69
2021/03/25 09:04:48;;;;;;;13.10;7.80;;;19.60;45.40;;;;;;5029542;28;20525;-70
2021/03/25 09:07:15;;;;;;;8.97;6.77;;;19.70;45.30;;;;;;5045720;28;21640;-70
2021/03/25 09:09:44;;;;;;;9.13;7.70;;;19.80;45.40;;;;;;5046324;28;20490;-71
2021/03/25 09:12:15;;;;;;;7.30;6.60;;;19.80;45.20;;;;;;5046243;28;20482;-70
2021/03/25 09:14:41;;;;;;;8.57;7.60;;;19.90;45.00;;;;;;5044310;28;20489;-69
2021/03/25 09:17:11;;;;;;;7.90;6.70;;;20.00;45.00;;;;;;5046117;28;20485;-70
2021/03/25 09:19:39;;;;;;;12.30;6.53;;;20.00;45.60;;;;;;5049343;28;20471;-70
2021/03/25 09:22:05;;;;;;;8.60;5.97;;;20.00;44.90;;;;;;5048557;28;20482;-69
2021/03/25 09:24:32;;;;;;;16.57;7.10;;;19.90;44.90;;;;;;5047088;28;20474;-68
2021/03/25 09:27:03;;;;;;;8.53;6.37;;;19.90;45.00;;;;;;5050390;28;20490;-69
2021/03/25 09:29:35;;;;;;;5.47;4.67;;;19.90;45.20;;;;;;5053832;28;21063;-68
2021/03/25 09:32:33;;;;;;;8.73;6.90;;;19.90;45.30;;;;;;5049599;28;20470;-68
2021/03/25 09:35:00;;;;;;;7.67;6.43;;;19.80;45.20;;;;;;5046532;28;20500;-67
2021/03/25 09:37:27;;;;;;;7.97;6.30;;;19.80;45.30;;;;;;5046501;28;20493;-69
2021/03/25 09:40:06;;;;;;;7.90;5.97;;;19.80;45.40;;;;;;5050756;28;20493;-67
2021/03/25 09:42:32;;;;;;;7.77;6.37;;;19.80;45.40;;;;;;5052580;28;21056;-68
2021/03/25 09:44:58;;;;;;;8.30;5.53;;;19.70;46.20;;;;;;5051954;28;21020;-68
2021/03/25 09:47:28;;;;;;;6.80;5.87;;;19.70;45.50;;;;;;5053155;28;20490;-68
2021/03/25 09:50:13;;;;;;;7.80;6.00;;;19.70;45.40;;;;;;5048099;28;20503;-69
2021/03/25 09:53:00;;;;;;;6.40;5.80;;;19.80;45.30;;;;;;5039885;28;21038;-68
2021/03/25 09:55:27;;;;;;;6.23;5.67;;;19.80;45.30;;;;;;5048189;28;20469;-68
2021/03/25 09:57:53;;;;;;;5.67;5.17;;;19.80;45.10;;;;;;5052697;28;20485;-68
2021/03/25 10:00:54;;;;;;;12.30;6.33;;;19.80;45.10;;;;;;5047179;28;21908;-68
2021/03/25 10:03:56;;;;;;;5.57;4.73;;;19.80;45.10;;;;;;5063876;28;20470;-69
2021/03/25 10:06:44;;;;;;;8.03;5.27;;;19.80;45.00;;;;;;5048115;28;20465;-68
2021/03/25 10:09:11;;;;;;;6.43;5.30;;;19.90;45.30;;;;;;5038583;28;21260;-69
2021/03/25 10:11:44;;;;;;;7.50;4.73;;;19.90;45.20;;;;;;5052141;28;21431;-69
2021/03/25 10:14:48;;;;;;;10.43;4.93;;;19.90;45.20;;;;;;5050946;28;21153;-69
2021/03/25 10:17:43;;;;;;;6.53;4.20;;;19.90;45.30;;;;;;5049430;28;20489;-69
2021/03/25 10:20:25;;;;;;;7.33;4.70;;;19.90;45.50;;;;;;5043316;28;20592;-68
2021/03/25 10:22:54;;;;;;;7.37;4.20;;;19.80;45.40;;;;;;5044503;28;20475;-68
2021/03/25 10:25:23;;;;;;;4.30;3.90;;;19.80;45.50;;;;;;5072516;28;20494;-69
2021/03/25 10:27:50;;;;;;;5.43;4.57;;;19.80;45.70;;;;;;5050551;28;20483;-69
2021/03/25 10:30:24;;;;;;;5.47;4.37;;;19.80;45.60;;;;;;5052164;28;20482;-70
2021/03/25 10:32:50;;;;;;;5.23;4.63;;;19.80;45.50;;;;;;5053530;28;20511;-70
2021/03/25 10:35:23;;;;;;;4.27;3.97;;;19.90;45.50;;;;;;5049496;28;20485;-70
2021/03/25 10:37:50;;;;;;;4.77;4.47;;;19.90;45.50;;;;;;5052960;28;20505;-69
2021/03/25 10:40:18;;;;;;;4.10;3.73;;;19.90;45.50;;;;;;5047012;28;20555;-70
2021/03/25 10:42:47;;;;;;;4.50;4.10;;;19.90;45.40;;;;;;5051676;28;20482;-70
2021/03/25 10:45:23;;;;;;;6.90;4.70;;;19.90;45.30;;;;;;5045688;28;20489;-68
2021/03/25 10:47:53;;;;;;;4.30;3.90;;;19.90;45.40;;;;;;5051065;28;20478;-69
2021/03/25 10:50:21;;;;;;;13.73;4.40;;;19.90;46.20;;;;;;5046956;28;20508;-69
2021/03/25 10:52:47;;;;;;;4.57;4.17;;;19.90;45.50;;;;;;5048189;28;20547;-69
2021/03/25 10:55:19;;;;;;;4.43;4.13;;;19.90;45.60;;;;;;5048226;28;20486;-69
2021/03/25 10:57:46;;;;;;;4.37;4.03;;;19.90;45.50;;;;;;5050364;28;20493;-69
2021/03/25 11:00:18;;;;;;;5.10;4.70;;;19.90;45.50;;;;;;5051045;28;20470;-69
2021/03/25 11:02:45;;;;;;;4.63;4.30;;;19.90;45.60;;;;;;5036963;28;20478;-70
2021/03/25 11:05:16;;;;;;;5.07;4.30;;;19.90;45.60;;;;;;5063253;28;20489;-70
2021/03/25 11:07:44;;;;;;;5.73;3.80;;;19.90;45.50;;;;;;5048648;28;20490;-68
2021/03/25 11:10:19;;;;;;;4.73;3.53;;;19.90;45.50;;;;;;5044452;28;20543;-68
2021/03/25 11:12:45;;;;;;;3.37;3.17;;;20.00;45.60;;;;;;5040192;28;20472;-69
2021/03/25 11:15:20;;;;;;;3.70;3.43;;;20.00;45.60;;;;;;5047708;28;20485;-70
2021/03/25 11:17:47;;;;;;;4.40;4.10;;;20.00;45.60;;;;;;5051232;28;20493;-69
2021/03/25 11:20:14;;;;;;;3.57;3.40;;;20.00;45.60;;;;;;5049876;28;20473;-69
2021/03/25 11:22:41;;;;;;;4.03;3.73;;;20.00;45.60;;;;;;5049898;28;20479;-69
2021/03/25 11:25:10;;;;;;;3.47;3.17;;;20.00;45.60;;;;;;5047350;28;20486;-69
2021/03/25 11:27:36;;;;;;;3.70;3.50;;;20.00;45.70;;;;;;5050020;28;21056;-69
2021/03/25 11:30:04;;;;;;;3.23;3.03;;;20.00;45.80;;;;;;5049846;28;21175;-68
2021/03/25 11:32:35;;;;;;;3.43;3.13;;;20.00;45.80;;;;;;5050145;28;20474;-69
2021/03/25 11:35:20;;;;;;;3.57;3.27;;;19.90;45.80;;;;;;5045079;28;20481;-69
2021/03/25 11:37:46;;;;;;;3.07;2.93;;;19.90;45.90;;;;;;5056068;28;20481;-70
2021/03/25 11:40:13;;;;;;;4.00;3.70;;;19.80;45.90;;;;;;5047835;28;20561;-69
2021/03/25 11:42:40;;;;;;;3.53;3.13;;;19.80;46.00;;;;;;5049592;28;20510;-69
2021/03/25 11:45:08;;;;;;;4.27;3.80;;;19.90;46.00;;;;;;5043543;28;20474;-69
2021/03/25 11:47:40;;;;;;;4.73;3.03;;;19.90;45.80;;;;;;5048488;28;20557;-69
2021/03/25 11:50:10;;;;;;;3.53;3.23;;;19.90;45.80;;;;;;5025105;28;21073;-70
2021/03/25 11:52:44;;;;;;;3.03;2.87;;;19.90;45.80;;;;;;5026737;28;20479;-68
2021/03/25 11:55:20;;;;;;;2.93;2.73;;;19.90;45.70;;;;;;5031403;28;20494;-69
2021/03/25 11:57:46;;;;;;;3.40;3.10;;;20.00;45.80;;;;;;5050136;28;20470;-69
2021/03/25 12:00:13;;;;;;;3.10;2.50;;;19.90;45.70;;;;;;5047702;28;20493;-69
2021/03/25 12:02:41;;;;;;;3.20;3.00;;;19.90;45.70;;;;;;5049815;28;21114;-69
2021/03/25 12:05:37;;;;;;;4.00;3.67;;;19.90;45.70;;;;;;5043155;28;20683;-69
2021/03/25 12:08:05;;;;;;;3.07;2.80;;;19.90;45.70;;;;;;5063447;28;20479;-68
2021/03/25 12:10:31;;;;;;;2.77;2.57;;;19.90;45.70;;;;;;5044924;28;22404;-69
2021/03/25 12:12:57;;;;;;;2.60;2.50;;;19.90;45.80;;;;;;5044994;28;20482;-69
2021/03/25 12:15:23;;;;;;;2.40;2.30;;;19.90;45.70;;;;;;5042142;28;20493;-69
2021/03/25 12:17:54;;;;;;;3.57;3.27;;;19.90;45.70;;;;;;5049899;28;20969;-69
2021/03/25 12:20:23;;;;;;;2.63;2.47;;;19.90;45.80;;;;;;5044620;28;20489;-68
2021/03/25 12:22:50;;;;;;;2.73;2.63;;;20.00;45.80;;;;;;5045850;28;20482;-69
2021/03/25 12:25:18;;;;;;;2.80;2.57;;;19.90;45.80;;;;;;5042474;28;20493;-68
2021/03/25 12:27:44;;;;;;;2.37;2.27;;;19.90;45.90;;;;;;5052398;28;20486;-68
2021/03/25 12:30:11;;;;;;;2.47;2.27;;;19.90;45.90;;;;;;5045890;28;20485;-69
2021/03/25 12:32:37;;;;;;;2.30;2.20;;;19.90;45.90;;;;;;5046465;28;20486;-69
2021/03/25 12:35:06;;;;;;;2.33;2.23;;;19.90;45.90;;;;;;5044748;28;20497;-69
2021/03/25 12:37:32;;;;;;;2.50;2.40;;;19.90;45.90;;;;;;5046036;28;20532;-69
2021/03/25 12:39:58;;;;;;;3.10;2.90;;;19.90;45.90;;;;;;5046654;28;20486;-69
2021/03/25 12:42:25;;;;;;;2.50;2.40;;;19.90;46.00;;;;;;5044289;28;20495;-70
2021/03/25 12:44:51;;;;;;;2.77;2.57;;;19.80;45.90;;;;;;5044918;28;20505;-69
2021/03/25 12:47:17;;;;;;;2.20;2.10;;;19.90;45.80;;;;;;5048379;28;21253;-69
2021/03/25 12:49:43;;;;;;;2.40;2.30;;;19.90;45.80;;;;;;5049208;28;20843;-69
2021/03/25 12:52:10;;;;;;;2.37;2.20;;;19.90;45.80;;;;;;5048640;28;21522;-69
2021/03/25 12:54:36;;;;;;;3.73;2.33;;;19.90;45.70;;;;;;5046634;28;21329;-69
2021/03/25 12:57:03;;;;;;;2.60;2.40;;;19.90;45.70;;;;;;5046102;28;20485;-69
2021/03/25 12:59:29;;;;;;;3.13;2.57;;;19.90;45.80;;;;;;5048988;28;20500;-69
2021/03/25 13:01:56;;;;;;;2.87;2.70;;;19.90;45.80;;;;;;5049756;28;20573;-69